sensor_id;sensor_type;location;lat;lon;timestamp;P1;durP1;ratioP1;P2;durP2;ratioP2
2029;SDS011;1020;48.854;8.830;2022-07-09T00:00:47;2.93;;;2.70;;
2029;SDS011;1020;48.854;8.830;2022-07-09T00:03:13;4.90;;;2.70;;
2029;SDS011;1020;48.854;8.830;2022-07-09T00:05:40;3.83;;;3.00;;
2029;SDS011;1020;48.854;8.830;2022-07-09T00:08:07;3.30;;;3.00;;
2029;SDS011;1020;48.854;8.830;2022-07-09T00:10:34;3.17;;;2.93;;
2029;SDS011;1020;48.854;8.830;2022-07-09T00:13:00;4.67;;;3.43;;
2029;SDS011;1020;48.854;8.830;2022-07-09T00:15:27;4.27;;;2.83;;
2029;SDS011;1020;48.854;8.830;2022-07-09T00:17:55;3.03;;;2.67;;
2029;SDS011;1020;48.854;8.830;2022-07-09T00:20:23;3.17;;;2.97;;
2029;SDS011;1020;48.854;8.830;2022-07-09T00:22:49;5.20;;;3.43;;
2029;SDS011;1020;48.854;8.830;2022-07-09T00:25:16;3.10;;;2.90;;
2029;SDS011;1020;48.854;8.830;2022-07-09T00:27:43;3.53;;;3.20;;
2029;SDS011;1020;48.854;8.830;2022-07-09T00:30:10;4.00;;;3.60;;
2029;SDS011;1020;48.854;8.830;2022-07-09T00:32:37;6.87;;;3.20;;
2029;SDS011;1020;48.854;8.830;2022-07-09T00:35:06;3.63;;;3.30;;
2029;SDS011;1020;48.854;8.830;2022-07-09T00:37:33;3.30;;;2.87;;
2029;SDS011;1020;48.854;8.830;2022-07-09T00:39:59;3.67;;;3.30;;
2029;SDS011;1020;48.854;8.830;2022-07-09T00:42:26;3.80;;;3.43;;
2029;SDS011;1020;48.854;8.830;2022-07-09T00:44:53;6.13;;;3.10;;
2029;SDS011;1020;48.854;8.830;2022-07-09T00:47:20;4.70;;;3.20;;
2029;SDS011;1020;48.854;8.830;2022-07-09T00:49:47;3.47;;;3.17;;
2029;SDS011;1020;48.854;8.830;2022-07-09T00:52:15;2.93;;;2.73;;
2029;SDS011;1020;48.854;8.830;2022-07-09T00:54:43;3.47;;;3.17;;
2029;SDS011;1020;48.854;8.830;2022-07-09T00:57:11;3.77;;;3.47;;
2029;SDS011;1020;48.854;8.830;2022-07-09T00:59:39;5.60;;;3.73;;
2029;SDS011;1020;48.854;8.830;2022-07-09T01:02:06;3.67;;;3.17;;
2029;SDS011;1020;48.854;8.830;2022-07-09T01:04:34;3.23;;;2.90;;
2029;SDS011;1020;48.854;8.830;2022-07-09T01:07:01;5.30;;;3.20;;
2029;SDS011;1020;48.854;8.830;2022-07-09T01:09:30;3.23;;;3.03;;
2029;SDS011;1020;48.854;8.830;2022-07-09T01:11:57;5.80;;;3.10;;
2029;SDS011;1020;48.854;8.830;2022-07-09T01:14:24;2.90;;;2.80;;
2029;SDS011;1020;48.854;8.830;2022-07-09T01:16:56;3.47;;;3.17;;
2029;SDS011;1020;48.854;8.830;2022-07-09T01:19:24;2.83;;;2.63;;
2029;SDS011;1020;48.854;8.830;2022-07-09T01:21:53;3.57;;;3.20;;
2029;SDS011;1020;48.854;8.830;2022-07-09T01:24:20;3.20;;;3.00;;
2029;SDS011;1020;48.854;8.830;2022-07-09T01:26:48;5.10;;;3.30;;
2029;SDS011;1020;48.854;8.830;2022-07-09T01:29:15;3.33;;;3.00;;
2029;SDS011;1020;48.854;8.830;2022-07-09T01:31:42;3.30;;;3.00;;
2029;SDS011;1020;48.854;8.830;2022-07-09T01:34:08;3.70;;;3.13;;
2029;SDS011;1020;48.854;8.830;2022-07-09T01:36:35;4.63;;;3.00;;
2029;SDS011;1020;48.854;8.830;2022-07-09T01:39:03;4.23;;;3.30;;
2029;SDS011;1020;48.854;8.830;2022-07-09T01:41:30;2.90;;;2.60;;
2029;SDS011;1020;48.854;8.830;2022-07-09T01:43:57;4.47;;;3.47;;
2029;SDS011;1020;48.854;8.830;2022-07-09T01:46:24;3.47;;;3.17;;
2029;SDS011;1020;48.854;8.830;2022-07-09T01:48:51;2.67;;;2.47;;
2029;SDS011;1020;48.854;8.830;2022-07-09T01:51:17;3.50;;;3.30;;
2029;SDS011;1020;48.854;8.830;2022-07-09T01:53:46;4.23;;;3.40;;
2029;SDS011;1020;48.854;8.830;2022-07-09T01:56:15;4.20;;;3.30;;
2029;SDS011;1020;48.854;8.830;2022-07-09T01:58:42;4.33;;;3.20;;
2029;SDS011;1020;48.854;8.830;2022-07-09T02:01:10;6.30;;;3.67;;
2029;SDS011;1020;48.854;8.830;2022-07-09T02:03:37;4.97;;;3.30;;
2029;SDS011;1020;48.854;8.830;2022-07-09T02:06:04;4.23;;;3.50;;
2029;SDS011;1020;48.854;8.830;2022-07-09T02:08:31;5.13;;;3.83;;
2029;SDS011;1020;48.854;8.830;2022-07-09T02:10:58;4.93;;;3.87;;
2029;SDS011;1020;48.854;8.830;2022-07-09T02:13:26;3.90;;;3.20;;
2029;SDS011;1020;48.854;8.830;2022-07-09T02:15:53;4.93;;;3.73;;
2029;SDS011;1020;48.854;8.830;2022-07-09T02:18:20;5.10;;;4.60;;
2029;SDS011;1020;48.854;8.830;2022-07-09T02:20:47;3.70;;;3.40;;
2029;SDS011;1020;48.854;8.830;2022-07-09T02:23:14;4.50;;;4.10;;
2029;SDS011;1020;48.854;8.830;2022-07-09T02:25:41;4.53;;;3.73;;
2029;SDS011;1020;48.854;8.830;2022-07-09T02:28:07;3.97;;;3.30;;
2029;SDS011;1020;48.854;8.830;2022-07-09T02:30:35;4.00;;;3.70;;
2029;SDS011;1020;48.854;8.830;2022-07-09T02:33:02;6.10;;;3.57;;
2029;SDS011;1020;48.854;8.830;2022-07-09T02:35:29;5.00;;;3.63;;
2029;SDS011;1020;48.854;8.830;2022-07-09T02:37:56;4.13;;;3.40;;
2029;SDS011;1020;48.854;8.830;2022-07-09T02:40:23;5.50;;;3.80;;
2029;SDS011;1020;48.854;8.830;2022-07-09T02:42:50;3.77;;;3.47;;
2029;SDS011;1020;48.854;8.830;2022-07-09T02:45:16;4.20;;;3.73;;
2029;SDS011;1020;48.854;8.830;2022-07-09T02:47:45;4.20;;;3.60;;
2029;SDS011;1020;48.854;8.830;2022-07-09T02:50:12;4.20;;;3.90;;
2029;SDS011;1020;48.854;8.830;2022-07-09T02:52:38;3.30;;;3.10;;
2029;SDS011;1020;48.854;8.830;2022-07-09T02:55:05;4.40;;;4.00;;
2029;SDS011;1020;48.854;8.830;2022-07-09T02:57:32;5.23;;;4.23;;
2029;SDS011;1020;48.854;8.830;2022-07-09T02:59:59;3.80;;;3.50;;
2029;SDS011;1020;48.854;8.830;2022-07-09T03:02:26;3.80;;;3.20;;
2029;SDS011;1020;48.854;8.830;2022-07-09T03:04:54;4.73;;;4.20;;
2029;SDS011;1020;48.854;8.830;2022-07-09T03:07:21;4.80;;;4.00;;
2029;SDS011;1020;48.854;8.830;2022-07-09T03:09:48;5.40;;;3.80;;
2029;SDS011;1020;48.854;8.830;2022-07-09T03:12:15;4.37;;;3.73;;
2029;SDS011;1020;48.854;8.830;2022-07-09T03:14:42;4.57;;;4.27;;
2029;SDS011;1020;48.854;8.830;2022-07-09T03:17:09;4.73;;;3.70;;
2029;SDS011;1020;48.854;8.830;2022-07-09T03:19:36;6.60;;;3.60;;
2029;SDS011;1020;48.854;8.830;2022-07-09T03:22:04;4.80;;;4.33;;
2029;SDS011;1020;48.854;8.830;2022-07-09T03:24:31;5.30;;;3.87;;
2029;SDS011;1020;48.854;8.830;2022-07-09T03:26:58;4.47;;;4.07;;
2029;SDS011;1020;48.854;8.830;2022-07-09T03:29:24;4.43;;;4.07;;
2029;SDS011;1020;48.854;8.830;2022-07-09T03:31:51;4.20;;;3.73;;
2029;SDS011;1020;48.854;8.830;2022-07-09T03:34:18;4.63;;;4.30;;
2029;SDS011;1020;48.854;8.830;2022-07-09T03:36:45;4.90;;;4.33;;
2029;SDS011;1020;48.854;8.830;2022-07-09T03:39:13;4.40;;;4.00;;
2029;SDS011;1020;48.854;8.830;2022-07-09T03:41:40;4.63;;;4.23;;
2029;SDS011;1020;48.854;8.830;2022-07-09T03:44:06;4.50;;;4.10;;
2029;SDS011;1020;48.854;8.830;2022-07-09T03:46:33;4.00;;;3.70;;
2029;SDS011;1020;48.854;8.830;2022-07-09T03:49:00;4.23;;;3.83;;
2029;SDS011;1020;48.854;8.830;2022-07-09T03:51:27;3.83;;;3.53;;
2029;SDS011;1020;48.854;8.830;2022-07-09T03:53:54;4.27;;;3.70;;
2029;SDS011;1020;48.854;8.830;2022-07-09T03:56:22;3.70;;;3.40;;
2029;SDS011;1020;48.854;8.830;2022-07-09T03:58:49;5.40;;;3.90;;
2029;SDS011;1020;48.854;8.830;2022-07-09T04:01:16;4.47;;;4.00;;
2029;SDS011;1020;48.854;8.830;2022-07-09T04:03:43;6.77;;;4.73;;
2029;SDS011;1020;48.854;8.830;2022-07-09T04:06:09;4.60;;;4.23;;
2029;SDS011;1020;48.854;8.830;2022-07-09T04:08:37;7.87;;;4.20;;
2029;SDS011;1020;48.854;8.830;2022-07-09T04:11:04;6.30;;;4.47;;
2029;SDS011;1020;48.854;8.830;2022-07-09T04:13:32;5.27;;;4.03;;
2029;SDS011;1020;48.854;8.830;2022-07-09T04:15:58;4.13;;;3.83;;
2029;SDS011;1020;48.854;8.830;2022-07-09T04:18:25;4.20;;;3.90;;
2029;SDS011;1020;48.854;8.830;2022-07-09T04:23:20;5.10;;;4.60;;
2029;SDS011;1020;48.854;8.830;2022-07-09T04:25:47;4.23;;;3.93;;
2029;SDS011;1020;48.854;8.830;2022-07-09T04:28:15;3.70;;;3.43;;
2029;SDS011;1020;48.854;8.830;2022-07-09T04:30:44;4.00;;;3.60;;
2029;SDS011;1020;48.854;8.830;2022-07-09T04:33:10;4.13;;;3.83;;
2029;SDS011;1020;48.854;8.830;2022-07-09T04:35:37;4.53;;;4.10;;
2029;SDS011;1020;48.854;8.830;2022-07-09T04:38:05;4.67;;;4.30;;
2029;SDS011;1020;48.854;8.830;2022-07-09T04:40:31;4.07;;;3.77;;
2029;SDS011;1020;48.854;8.830;2022-07-09T04:42:58;4.93;;;4.30;;
2029;SDS011;1020;48.854;8.830;2022-07-09T04:45:25;3.93;;;3.63;;
2029;SDS011;1020;48.854;8.830;2022-07-09T04:47:55;4.57;;;4.17;;
2029;SDS011;1020;48.854;8.830;2022-07-09T04:50:22;4.43;;;4.10;;
2029;SDS011;1020;48.854;8.830;2022-07-09T04:52:49;3.93;;;3.60;;
2029;SDS011;1020;48.854;8.830;2022-07-09T04:55:16;3.70;;;3.40;;
2029;SDS011;1020;48.854;8.830;2022-07-09T04:57:43;3.73;;;3.43;;
2029;SDS011;1020;48.854;8.830;2022-07-09T05:00:11;7.93;;;4.13;;
2029;SDS011;1020;48.854;8.830;2022-07-09T05:02:38;4.30;;;3.90;;
2029;SDS011;1020;48.854;8.830;2022-07-09T05:05:07;3.87;;;3.43;;
2029;SDS011;1020;48.854;8.830;2022-07-09T05:07:34;4.23;;;3.83;;
2029;SDS011;1020;48.854;8.830;2022-07-09T05:10:01;4.43;;;3.93;;
2029;SDS011;1020;48.854;8.830;2022-07-09T05:12:29;4.70;;;3.83;;
2029;SDS011;1020;48.854;8.830;2022-07-09T05:14:56;4.17;;;3.87;;
2029;SDS011;1020;48.854;8.830;2022-07-09T05:17:23;4.07;;;3.77;;
2029;SDS011;1020;48.854;8.830;2022-07-09T05:19:50;4.70;;;4.30;;
2029;SDS011;1020;48.854;8.830;2022-07-09T05:22:18;6.73;;;4.60;;
2029;SDS011;1020;48.854;8.830;2022-07-09T05:24:48;3.60;;;3.30;;
2029;SDS011;1020;48.854;8.830;2022-07-09T05:27:14;5.10;;;4.50;;
2029;SDS011;1020;48.854;8.830;2022-07-09T05:29:41;5.30;;;4.70;;
2029;SDS011;1020;48.854;8.830;2022-07-09T05:32:08;7.97;;;5.03;;
2029;SDS011;1020;48.854;8.830;2022-07-09T05:34:35;8.63;;;4.73;;
2029;SDS011;1020;48.854;8.830;2022-07-09T05:37:02;7.00;;;4.30;;
2029;SDS011;1020;48.854;8.830;2022-07-09T05:39:30;4.47;;;4.10;;
2029;SDS011;1020;48.854;8.830;2022-07-09T05:41:57;5.53;;;4.70;;
2029;SDS011;1020;48.854;8.830;2022-07-09T05:44:24;8.40;;;4.13;;
2029;SDS011;1020;48.854;8.830;2022-07-09T05:46:50;4.33;;;3.93;;
2029;SDS011;1020;48.854;8.830;2022-07-09T05:49:17;3.93;;;3.63;;
2029;SDS011;1020;48.854;8.830;2022-07-09T05:51:44;4.70;;;3.73;;
2029;SDS011;1020;48.854;8.830;2022-07-09T05:54:11;3.23;;;3.03;;
2029;SDS011;1020;48.854;8.830;2022-07-09T05:56:39;4.00;;;3.67;;
2029;SDS011;1020;48.854;8.830;2022-07-09T05:59:06;4.00;;;3.70;;
2029;SDS011;1020;48.854;8.830;2022-07-09T06:01:33;3.50;;;3.20;;
2029;SDS011;1020;48.854;8.830;2022-07-09T06:04:04;6.30;;;4.00;;
2029;SDS011;1020;48.854;8.830;2022-07-09T06:06:30;3.97;;;3.67;;
2029;SDS011;1020;48.854;8.830;2022-07-09T06:08:57;3.80;;;3.60;;
2029;SDS011;1020;48.854;8.830;2022-07-09T06:11:24;3.50;;;3.20;;
2029;SDS011;1020;48.854;8.830;2022-07-09T06:13:52;3.63;;;3.33;;
2029;SDS011;1020;48.854;8.830;2022-07-09T06:16:19;2.80;;;2.60;;
2029;SDS011;1020;48.854;8.830;2022-07-09T06:18:46;2.83;;;2.63;;
2029;SDS011;1020;48.854;8.830;2022-07-09T06:21:13;3.47;;;3.17;;
2029;SDS011;1020;48.854;8.830;2022-07-09T06:23:40;3.20;;;3.00;;
2029;SDS011;1020;48.854;8.830;2022-07-09T06:26:07;3.87;;;2.67;;
2029;SDS011;1020;48.854;8.830;2022-07-09T06:28:35;2.90;;;2.70;;
2029;SDS011;1020;48.854;8.830;2022-07-09T06:31:04;4.23;;;2.60;;
2029;SDS011;1020;48.854;8.830;2022-07-09T06:33:31;4.97;;;3.50;;
2029;SDS011;1020;48.854;8.830;2022-07-09T06:35:58;6.13;;;3.50;;
2029;SDS011;1020;48.854;8.830;2022-07-09T06:38:27;3.73;;;2.93;;
2029;SDS011;1020;48.854;8.830;2022-07-09T06:40:55;4.03;;;3.07;;
2029;SDS011;1020;48.854;8.830;2022-07-09T06:43:22;3.03;;;2.70;;
2029;SDS011;1020;48.854;8.830;2022-07-09T06:45:48;3.10;;;2.90;;
2029;SDS011;1020;48.854;8.830;2022-07-09T06:48:16;3.63;;;3.03;;
2029;SDS011;1020;48.854;8.830;2022-07-09T06:50:43;3.10;;;2.90;;
2029;SDS011;1020;48.854;8.830;2022-07-09T06:53:10;3.33;;;2.90;;
2029;SDS011;1020;48.854;8.830;2022-07-09T06:55:37;4.20;;;3.00;;
2029;SDS011;1020;48.854;8.830;2022-07-09T06:58:03;2.93;;;2.73;;
2029;SDS011;1020;48.854;8.830;2022-07-09T07:00:30;6.20;;;3.10;;
2029;SDS011;1020;48.854;8.830;2022-07-09T07:02:59;3.70;;;3.13;;
2029;SDS011;1020;48.854;8.830;2022-07-09T07:05:27;4.60;;;2.93;;
2029;SDS011;1020;48.854;8.830;2022-07-09T07:07:54;2.63;;;2.43;;
2029;SDS011;1020;48.854;8.830;2022-07-09T07:10:21;2.50;;;2.27;;
2029;SDS011;1020;48.854;8.830;2022-07-09T07:12:47;2.73;;;2.47;;
2029;SDS011;1020;48.854;8.830;2022-07-09T07:15:14;3.47;;;2.90;;
2029;SDS011;1020;48.854;8.830;2022-07-09T07:17:41;7.50;;;2.83;;
2029;SDS011;1020;48.854;8.830;2022-07-09T07:20:08;2.93;;;2.63;;
2029;SDS011;1020;48.854;8.830;2022-07-09T07:22:37;3.97;;;2.40;;
2029;SDS011;1020;48.854;8.830;2022-07-09T07:25:04;3.23;;;2.77;;
2029;SDS011;1020;48.854;8.830;2022-07-09T07:27:31;2.73;;;2.40;;
2029;SDS011;1020;48.854;8.830;2022-07-09T07:29:58;2.60;;;2.10;;
2029;SDS011;1020;48.854;8.830;2022-07-09T07:32:25;4.03;;;2.00;;
2029;SDS011;1020;48.854;8.830;2022-07-09T07:34:52;2.87;;;1.80;;
2029;SDS011;1020;48.854;8.830;2022-07-09T07:37:18;5.50;;;2.30;;
2029;SDS011;1020;48.854;8.830;2022-07-09T07:39:47;2.40;;;2.03;;
2029;SDS011;1020;48.854;8.830;2022-07-09T07:42:13;2.77;;;2.27;;
2029;SDS011;1020;48.854;8.830;2022-07-09T07:44:41;2.60;;;2.10;;
2029;SDS011;1020;48.854;8.830;2022-07-09T07:47:08;1.63;;;1.50;;
2029;SDS011;1020;48.854;8.830;2022-07-09T07:49:35;2.30;;;1.97;;
2029;SDS011;1020;48.854;8.830;2022-07-09T07:52:02;3.47;;;1.80;;
2029;SDS011;1020;48.854;8.830;2022-07-09T07:54:29;2.97;;;1.40;;
2029;SDS011;1020;48.854;8.830;2022-07-09T07:56:57;1.37;;;1.10;;
2029;SDS011;1020;48.854;8.830;2022-07-09T07:59:24;1.07;;;0.97;;
2029;SDS011;1020;48.854;8.830;2022-07-09T08:01:50;1.10;;;1.00;;
2029;SDS011;1020;48.854;8.830;2022-07-09T08:04:17;2.17;;;1.37;;
2029;SDS011;1020;48.854;8.830;2022-07-09T08:06:44;2.87;;;1.63;;
2029;SDS011;1020;48.854;8.830;2022-07-09T08:09:11;1.10;;;1.00;;
2029;SDS011;1020;48.854;8.830;2022-07-09T08:11:38;1.40;;;1.00;;
2029;SDS011;1020;48.854;8.830;2022-07-09T08:14:06;2.37;;;1.43;;
2029;SDS011;1020;48.854;8.830;2022-07-09T08:16:34;3.20;;;1.40;;
2029;SDS011;1020;48.854;8.830;2022-07-09T08:19:00;2.77;;;1.20;;
2029;SDS011;1020;48.854;8.830;2022-07-09T08:21:27;1.30;;;1.10;;
2029;SDS011;1020;48.854;8.830;2022-07-09T08:23:54;1.30;;;1.20;;
2029;SDS011;1020;48.854;8.830;2022-07-09T08:26:22;3.97;;;1.33;;
2029;SDS011;1020;48.854;8.830;2022-07-09T08:28:50;2.93;;;1.40;;
2029;SDS011;1020;48.854;8.830;2022-07-09T08:31:19;0.83;;;0.83;;
2029;SDS011;1020;48.854;8.830;2022-07-09T08:33:48;1.20;;;1.10;;
2029;SDS011;1020;48.854;8.830;2022-07-09T08:36:16;1.77;;;1.40;;
2029;SDS011;1020;48.854;8.830;2022-07-09T08:38:43;1.33;;;1.23;;
2029;SDS011;1020;48.854;8.830;2022-07-09T08:41:12;2.10;;;1.40;;
2029;SDS011;1020;48.854;8.830;2022-07-09T08:43:41;2.40;;;1.47;;
2029;SDS011;1020;48.854;8.830;2022-07-09T08:46:07;2.00;;;1.60;;
2029;SDS011;1020;48.854;8.830;2022-07-09T08:48:36;2.30;;;1.40;;
2029;SDS011;1020;48.854;8.830;2022-07-09T08:51:03;1.33;;;1.20;;
2029;SDS011;1020;48.854;8.830;2022-07-09T08:53:31;1.50;;;1.40;;
2029;SDS011;1020;48.854;8.830;2022-07-09T08:55:57;2.40;;;1.40;;
2029;SDS011;1020;48.854;8.830;2022-07-09T08:58:24;1.33;;;1.23;;
2029;SDS011;1020;48.854;8.830;2022-07-09T09:00:51;1.40;;;1.30;;
2029;SDS011;1020;48.854;8.830;2022-07-09T09:03:18;4.13;;;1.50;;
2029;SDS011;1020;48.854;8.830;2022-07-09T09:05:59;2.33;;;1.17;;
2029;SDS011;1020;48.854;8.830;2022-07-09T09:08:27;2.43;;;1.30;;
2029;SDS011;1020;48.854;8.830;2022-07-09T09:10:53;1.70;;;1.33;;
2029;SDS011;1020;48.854;8.830;2022-07-09T09:13:20;0.80;;;0.80;;
2029;SDS011;1020;48.854;8.830;2022-07-09T09:15:47;1.03;;;0.93;;
2029;SDS011;1020;48.854;8.830;2022-07-09T09:18:14;1.20;;;1.20;;
2029;SDS011;1020;48.854;8.830;2022-07-09T09:20:44;1.00;;;1.00;;
2029;SDS011;1020;48.854;8.830;2022-07-09T09:23:16;1.90;;;1.17;;
2029;SDS011;1020;48.854;8.830;2022-07-09T09:25:43;1.73;;;0.87;;
2029;SDS011;1020;48.854;8.830;2022-07-09T09:28:11;3.40;;;1.57;;
2029;SDS011;1020;48.854;8.830;2022-07-09T09:30:41;1.20;;;1.10;;
2029;SDS011;1020;48.854;8.830;2022-07-09T09:33:08;1.07;;;0.97;;
2029;SDS011;1020;48.854;8.830;2022-07-09T09:35:36;0.80;;;0.80;;
2029;SDS011;1020;48.854;8.830;2022-07-09T09:38:09;0.70;;;0.70;;
2029;SDS011;1020;48.854;8.830;2022-07-09T09:40:37;2.37;;;1.00;;
2029;SDS011;1020;48.854;8.830;2022-07-09T09:43:04;1.10;;;1.00;;
2029;SDS011;1020;48.854;8.830;2022-07-09T09:45:32;2.50;;;1.17;;
2029;SDS011;1020;48.854;8.830;2022-07-09T09:48:00;2.37;;;0.90;;
2029;SDS011;1020;48.854;8.830;2022-07-09T09:50:28;1.37;;;0.77;;
2029;SDS011;1020;48.854;8.830;2022-07-09T09:52:55;1.07;;;0.90;;
2029;SDS011;1020;48.854;8.830;2022-07-09T09:55:22;1.10;;;0.80;;
2029;SDS011;1020;48.854;8.830;2022-07-09T09:57:50;1.77;;;1.00;;
2029;SDS011;1020;48.854;8.830;2022-07-09T10:00:19;1.30;;;1.10;;
2029;SDS011;1020;48.854;8.830;2022-07-09T10:02:46;0.80;;;0.70;;
2029;SDS011;1020;48.854;8.830;2022-07-09T10:05:15;1.17;;;0.80;;
2029;SDS011;1020;48.854;8.830;2022-07-09T10:07:42;2.03;;;1.00;;
2029;SDS011;1020;48.854;8.830;2022-07-09T10:10:16;1.53;;;1.20;;
2029;SDS011;1020;48.854;8.830;2022-07-09T10:12:43;2.00;;;1.90;;
2029;SDS011;1020;48.854;8.830;2022-07-09T10:15:20;1.53;;;1.00;;
2029;SDS011;1020;48.854;8.830;2022-07-09T10:17:48;1.00;;;1.00;;
2029;SDS011;1020;48.854;8.830;2022-07-09T10:20:15;1.50;;;1.40;;
2029;SDS011;1020;48.854;8.830;2022-07-09T10:22:42;1.47;;;1.37;;
2029;SDS011;1020;48.854;8.830;2022-07-09T10:25:11;1.50;;;1.20;;
2029;SDS011;1020;48.854;8.830;2022-07-09T10:27:40;1.93;;;1.63;;
2029;SDS011;1020;48.854;8.830;2022-07-09T10:30:09;1.47;;;1.37;;
2029;SDS011;1020;48.854;8.830;2022-07-09T10:33:04;2.10;;;1.30;;
2029;SDS011;1020;48.854;8.830;2022-07-09T10:35:38;3.40;;;1.90;;
2029;SDS011;1020;48.854;8.830;2022-07-09T10:38:06;1.77;;;1.40;;
2029;SDS011;1020;48.854;8.830;2022-07-09T10:40:37;1.40;;;1.30;;
2029;SDS011;1020;48.854;8.830;2022-07-09T10:43:05;2.93;;;1.30;;
2029;SDS011;1020;48.854;8.830;2022-07-09T10:45:39;1.70;;;1.00;;
2029;SDS011;1020;48.854;8.830;2022-07-09T10:48:07;1.77;;;1.20;;
2029;SDS011;1020;48.854;8.830;2022-07-09T10:50:36;1.97;;;1.20;;
2029;SDS011;1020;48.854;8.830;2022-07-09T10:53:04;1.00;;;0.90;;
2029;SDS011;1020;48.854;8.830;2022-07-09T10:55:32;0.93;;;0.93;;
2029;SDS011;1020;48.854;8.830;2022-07-09T10:57:59;0.80;;;0.80;;
2029;SDS011;1020;48.854;8.830;2022-07-09T11:00:28;1.67;;;1.20;;
2029;SDS011;1020;48.854;8.830;2022-07-09T11:02:59;1.03;;;0.97;;
2029;SDS011;1020;48.854;8.830;2022-07-09T11:05:27;0.90;;;0.70;;
2029;SDS011;1020;48.854;8.830;2022-07-09T11:07:57;1.10;;;1.00;;
2029;SDS011;1020;48.854;8.830;2022-07-09T11:10:28;1.13;;;1.03;;
2029;SDS011;1020;48.854;8.830;2022-07-09T11:12:57;0.90;;;0.90;;
2029;SDS011;1020;48.854;8.830;2022-07-09T11:15:26;1.07;;;1.07;;
2029;SDS011;1020;48.854;8.830;2022-07-09T11:17:59;1.10;;;1.00;;
2029;SDS011;1020;48.854;8.830;2022-07-09T11:20:27;1.00;;;0.90;;
2029;SDS011;1020;48.854;8.830;2022-07-09T11:22:54;0.90;;;0.90;;
2029;SDS011;1020;48.854;8.830;2022-07-09T11:25:22;0.90;;;0.90;;
2029;SDS011;1020;48.854;8.830;2022-07-09T11:27:50;0.87;;;0.87;;
2029;SDS011;1020;48.854;8.830;2022-07-09T11:30:17;1.13;;;1.00;;
2029;SDS011;1020;48.854;8.830;2022-07-09T11:32:44;0.97;;;0.97;;
2029;SDS011;1020;48.854;8.830;2022-07-09T11:35:12;1.20;;;1.10;;
2029;SDS011;1020;48.854;8.830;2022-07-09T11:37:50;1.27;;;0.90;;
2029;SDS011;1020;48.854;8.830;2022-07-09T11:40:17;0.77;;;0.77;;
2029;SDS011;1020;48.854;8.830;2022-07-09T11:42:45;2.67;;;1.10;;
2029;SDS011;1020;48.854;8.830;2022-07-09T11:45:12;1.20;;;1.10;;
2029;SDS011;1020;48.854;8.830;2022-07-09T11:47:40;1.60;;;1.00;;
2029;SDS011;1020;48.854;8.830;2022-07-09T11:50:08;1.13;;;0.97;;
2029;SDS011;1020;48.854;8.830;2022-07-09T11:52:42;1.47;;;1.00;;
2029;SDS011;1020;48.854;8.830;2022-07-09T11:55:10;1.10;;;1.00;;
2029;SDS011;1020;48.854;8.830;2022-07-09T11:57:49;1.57;;;0.90;;
2029;SDS011;1020;48.854;8.830;2022-07-09T12:00:20;1.00;;;0.93;;
2029;SDS011;1020;48.854;8.830;2022-07-09T12:02:47;0.90;;;0.90;;
2029;SDS011;1020;48.854;8.830;2022-07-09T12:05:23;1.63;;;1.07;;
2029;SDS011;1020;48.854;8.830;2022-07-09T12:07:52;1.60;;;1.20;;
2029;SDS011;1020;48.854;8.830;2022-07-09T12:10:24;0.73;;;0.73;;
2029;SDS011;1020;48.854;8.830;2022-07-09T12:12:52;0.83;;;0.83;;
2029;SDS011;1020;48.854;8.830;2022-07-09T12:15:20;2.10;;;0.93;;
2029;SDS011;1020;48.854;8.830;2022-07-09T12:17:50;1.80;;;1.30;;
2029;SDS011;1020;48.854;8.830;2022-07-09T12:20:19;1.50;;;0.90;;
2029;SDS011;1020;48.854;8.830;2022-07-09T12:22:46;1.20;;;1.10;;
2029;SDS011;1020;48.854;8.830;2022-07-09T12:25:14;1.70;;;1.30;;
2029;SDS011;1020;48.854;8.830;2022-07-09T12:27:41;0.83;;;0.83;;
2029;SDS011;1020;48.854;8.830;2022-07-09T12:30:08;1.10;;;1.00;;
2029;SDS011;1020;48.854;8.830;2022-07-09T12:32:35;1.27;;;0.90;;
2029;SDS011;1020;48.854;8.830;2022-07-09T12:35:02;1.13;;;1.03;;
2029;SDS011;1020;48.854;8.830;2022-07-09T12:37:30;3.40;;;1.20;;
2029;SDS011;1020;48.854;8.830;2022-07-09T12:39:57;2.53;;;1.10;;
2029;SDS011;1020;48.854;8.830;2022-07-09T12:42:25;1.67;;;1.30;;
2029;SDS011;1020;48.854;8.830;2022-07-09T12:44:52;0.90;;;0.90;;
2029;SDS011;1020;48.854;8.830;2022-07-09T12:47:18;1.37;;;1.27;;
2029;SDS011;1020;48.854;8.830;2022-07-09T12:49:45;1.17;;;1.13;;
2029;SDS011;1020;48.854;8.830;2022-07-09T12:52:12;1.07;;;1.07;;
2029;SDS011;1020;48.854;8.830;2022-07-09T12:54:39;1.57;;;1.47;;
2029;SDS011;1020;48.854;8.830;2022-07-09T12:57:05;1.70;;;1.60;;
2029;SDS011;1020;48.854;8.830;2022-07-09T12:59:33;1.50;;;1.40;;
2029;SDS011;1020;48.854;8.830;2022-07-09T13:02:01;1.30;;;1.30;;
2029;SDS011;1020;48.854;8.830;2022-07-09T13:04:28;1.40;;;1.20;;
2029;SDS011;1020;48.854;8.830;2022-07-09T13:06:54;2.07;;;1.60;;
2029;SDS011;1020;48.854;8.830;2022-07-09T13:09:21;1.83;;;1.13;;
2029;SDS011;1020;48.854;8.830;2022-07-09T13:11:48;1.40;;;1.27;;
2029;SDS011;1020;48.854;8.830;2022-07-09T13:14:15;2.93;;;1.43;;
2029;SDS011;1020;48.854;8.830;2022-07-09T13:16:43;1.20;;;1.10;;
2029;SDS011;1020;48.854;8.830;2022-07-09T13:19:10;1.43;;;1.33;;
2029;SDS011;1020;48.854;8.830;2022-07-09T13:21:37;3.20;;;1.50;;
2029;SDS011;1020;48.854;8.830;2022-07-09T13:24:04;1.90;;;1.13;;
2029;SDS011;1020;48.854;8.830;2022-07-09T13:26:31;1.57;;;1.50;;
2029;SDS011;1020;48.854;8.830;2022-07-09T13:28:58;1.60;;;1.50;;
2029;SDS011;1020;48.854;8.830;2022-07-09T13:31:25;1.70;;;1.60;;
2029;SDS011;1020;48.854;8.830;2022-07-09T13:33:53;1.43;;;1.33;;
2029;SDS011;1020;48.854;8.830;2022-07-09T13:36:20;2.33;;;1.50;;
2029;SDS011;1020;48.854;8.830;2022-07-09T13:38:46;1.50;;;1.40;;
2029;SDS011;1020;48.854;8.830;2022-07-09T13:41:13;1.90;;;1.30;;
2029;SDS011;1020;48.854;8.830;2022-07-09T13:43:41;1.53;;;1.43;;
2029;SDS011;1020;48.854;8.830;2022-07-09T13:46:10;2.17;;;1.30;;
2029;SDS011;1020;48.854;8.830;2022-07-09T13:48:37;1.97;;;1.50;;
2029;SDS011;1020;48.854;8.830;2022-07-09T13:51:06;1.67;;;1.57;;
2029;SDS011;1020;48.854;8.830;2022-07-09T13:53:32;1.70;;;1.60;;
2029;SDS011;1020;48.854;8.830;2022-07-09T13:55:59;1.70;;;1.60;;
2029;SDS011;1020;48.854;8.830;2022-07-09T13:58:26;1.47;;;1.30;;
2029;SDS011;1020;48.854;8.830;2022-07-09T14:00:53;1.83;;;1.73;;
2029;SDS011;1020;48.854;8.830;2022-07-09T14:03:20;1.80;;;1.70;;
2029;SDS011;1020;48.854;8.830;2022-07-09T14:05:48;2.13;;;1.93;;
2029;SDS011;1020;48.854;8.830;2022-07-09T14:08:16;1.60;;;1.50;;
2029;SDS011;1020;48.854;8.830;2022-07-09T14:10:42;5.30;;;2.03;;
2029;SDS011;1020;48.854;8.830;2022-07-09T14:13:09;2.53;;;2.30;;
2029;SDS011;1020;48.854;8.830;2022-07-09T14:15:36;2.13;;;2.03;;
2029;SDS011;1020;48.854;8.830;2022-07-09T14:18:03;2.10;;;2.00;;
2029;SDS011;1020;48.854;8.830;2022-07-09T14:20:30;3.30;;;2.40;;
2029;SDS011;1020;48.854;8.830;2022-07-09T14:22:56;1.73;;;1.63;;
2029;SDS011;1020;48.854;8.830;2022-07-09T14:25:24;1.80;;;1.70;;
2029;SDS011;1020;48.854;8.830;2022-07-09T14:27:51;3.63;;;1.70;;
2029;SDS011;1020;48.854;8.830;2022-07-09T14:30:19;2.20;;;2.00;;
2029;SDS011;1020;48.854;8.830;2022-07-09T14:32:46;1.47;;;1.37;;
2029;SDS011;1020;48.854;8.830;2022-07-09T14:35:12;2.00;;;1.30;;
2029;SDS011;1020;48.854;8.830;2022-07-09T14:37:39;1.70;;;1.60;;
2029;SDS011;1020;48.854;8.830;2022-07-09T14:40:06;2.80;;;1.70;;
2029;SDS011;1020;48.854;8.830;2022-07-09T14:42:35;1.80;;;1.70;;
2029;SDS011;1020;48.854;8.830;2022-07-09T14:45:02;1.60;;;1.50;;
2029;SDS011;1020;48.854;8.830;2022-07-09T14:47:29;2.20;;;1.80;;
2029;SDS011;1020;48.854;8.830;2022-07-09T14:49:56;1.87;;;1.73;;
2029;SDS011;1020;48.854;8.830;2022-07-09T14:52:23;1.70;;;1.60;;
2029;SDS011;1020;48.854;8.830;2022-07-09T14:54:50;1.73;;;1.40;;
2029;SDS011;1020;48.854;8.830;2022-07-09T14:57:17;2.27;;;1.67;;
2029;SDS011;1020;48.854;8.830;2022-07-09T14:59:45;2.30;;;1.60;;
2029;SDS011;1020;48.854;8.830;2022-07-09T15:02:12;1.53;;;1.43;;
2029;SDS011;1020;48.854;8.830;2022-07-09T15:04:39;4.40;;;1.60;;
2029;SDS011;1020;48.854;8.830;2022-07-09T15:07:05;1.67;;;1.57;;
2029;SDS011;1020;48.854;8.830;2022-07-09T15:09:32;3.03;;;1.57;;
2029;SDS011;1020;48.854;8.830;2022-07-09T15:11:59;1.70;;;1.60;;
2029;SDS011;1020;48.854;8.830;2022-07-09T15:14:26;2.43;;;1.80;;
2029;SDS011;1020;48.854;8.830;2022-07-09T15:16:54;2.53;;;1.73;;
2029;SDS011;1020;48.854;8.830;2022-07-09T15:19:21;1.87;;;1.77;;